Time;durP1;ratioP1;P1;durP2;ratioP2;P2;SDS_P1;SDS_P2;PMS_P1;PMS_P2;Temp;Humidity;BMP_temperature;BMP_pressure;BME280_temperature;BME280_humidity;BME280_pressure;Samples;Min_cycle;Max_cycle;Signal;HPM_P1;HPM_P2
2021/12/25 00:02:14;;;;;;;11.00;7.40;;;7.40;99.90;;;;;;4985597;28;20228;-71
2021/12/25 00:04:41;;;;;;;13.27;7.30;;;7.30;99.90;;;;;;4985989;28;20273;-70
2021/12/25 00:07:07;;;;;;;13.37;7.53;;;7.30;99.90;;;;;;4987036;28;20204;-71
2021/12/25 00:09:34;;;;;;;10.27;7.00;;;7.40;99.90;;;;;;4976020;28;20258;-71
2021/12/25 00:12:01;;;;;;;10.10;6.97;;;7.50;99.90;;;;;;4980264;28;20209;-71
2021/12/25 00:14:28;;;;;;;11.23;7.17;;;7.50;99.90;;;;;;4979564;28;20227;-69
2021/12/25 00:16:57;;;;;;;14.33;7.30;;;7.50;99.90;;;;;;4980829;28;20203;-70
2021/12/25 00:19:24;;;;;;;10.77;7.43;;;7.60;99.90;;;;;;4987188;28;20657;-69
2021/12/25 00:21:51;;;;;;;10.70;7.47;;;7.70;99.90;;;;;;4986930;28;20219;-69
2021/12/25 00:24:17;;;;;;;13.70;7.63;;;7.80;99.90;;;;;;4981038;28;20216;-69
2021/12/25 00:29:36;;;;;;;9.77;6.73;;;7.60;99.90;;;;;;4986004;28;20587;-70
2021/12/25 00:32:27;;;;;;;10.67;7.20;;;7.60;99.90;;;;;;4988431;28;20204;-69
2021/12/25 00:34:53;;;;;;;11.87;7.37;;;7.50;99.90;;;;;;4985765;28;20284;-70
2021/12/25 00:37:20;;;;;;;11.23;6.93;;;7.60;99.90;;;;;;4992134;28;20636;-71
2021/12/25 00:39:46;;;;;;;10.97;7.07;;;7.70;99.90;;;;;;4991250;28;20215;-70
2021/12/25 00:42:13;;;;;;;10.93;7.27;;;7.60;99.90;;;;;;4988962;28;20228;-70
2021/12/25 00:44:41;;;;;;;9.63;6.30;;;7.60;99.90;;;;;;4988029;28;20719;-73
2021/12/25 00:47:08;;;;;;;11.17;7.47;;;7.60;99.90;;;;;;4993142;28;20202;-70
2021/12/25 00:49:35;;;;;;;11.53;7.03;;;7.60;99.90;;;;;;4993472;28;20222;-70
2021/12/25 00:52:05;;;;;;;11.87;7.70;;;7.60;99.90;;;;;;4992516;28;20235;-69
2021/12/25 00:54:35;;;;;;;11.13;7.83;;;7.60;99.90;;;;;;4993894;28;20243;-70
2021/12/25 00:57:02;;;;;;;10.23;7.50;;;7.60;99.90;;;;;;4994971;28;20199;-70
2021/12/25 00:59:29;;;;;;;11.10;6.97;;;7.60;99.90;;;;;;4988604;28;20275;-70
2021/12/25 01:01:56;;;;;;;13.83;7.63;;;7.60;99.90;;;;;;4990641;28;20300;-70
2021/12/25 01:04:22;;;;;;;11.10;7.60;;;7.60;99.90;;;;;;4987238;28;20213;-72
2021/12/25 01:06:49;;;;;;;12.50;8.43;;;7.70;99.90;;;;;;4984549;28;20199;-70
2021/12/25 01:09:16;;;;;;;11.57;7.97;;;7.80;99.90;;;;;;4991605;28;20274;-70
2021/12/25 01:11:46;;;;;;;13.20;8.30;;;7.90;99.90;;;;;;4988614;28;20207;-72
2021/12/25 01:14:24;;;;;;;15.30;8.80;;;7.90;99.90;;;;;;4984305;28;20223;-70
2021/12/25 01:34:56;;;;;;;12.23;7.97;;;7.70;99.90;;;;;;4988945;28;20277;-70
2021/12/25 01:37:36;;;;;;;12.53;7.17;;;7.60;99.90;;;;;;4986595;28;20218;-70
2021/12/25 01:40:27;;;;;;;12.40;8.03;;;7.50;99.90;;;;;;4977164;28;20263;-70
2021/12/25 01:48:18;;;;;;;12.87;7.97;;;7.60;99.90;;;;;;4990060;28;20207;-71
2021/12/25 01:50:46;;;;;;;12.83;8.50;;;7.60;99.90;;;;;;4975521;28;20253;-71
2021/12/25 01:53:12;;;;;;;14.10;8.77;;;7.70;99.90;;;;;;4977467;28;20204;-70
2021/12/25 01:55:40;;;;;;;12.80;8.03;;;7.80;99.90;;;;;;4990621;28;20210;-72
2021/12/25 01:58:06;;;;;;;12.13;7.50;;;7.70;99.90;;;;;;4985969;28;20257;-71
2021/12/25 02:00:41;;;;;;;11.33;7.80;;;7.80;99.90;;;;;;4991158;28;20397;-70
2021/12/25 02:03:10;;;;;;;12.20;7.20;;;7.70;99.90;;;;;;4989109;28;20893;-70
2021/12/25 02:05:38;;;;;;;10.27;7.50;;;7.70;99.90;;;;;;4985594;28;20255;-70
2021/12/25 02:08:20;;;;;;;11.57;6.90;;;7.70;99.90;;;;;;4985732;28;20294;-70
2021/12/25 02:10:46;;;;;;;13.87;8.17;;;7.70;99.90;;;;;;4986886;28;20738;-72
2021/12/25 02:13:14;;;;;;;11.63;7.73;;;7.70;99.90;;;;;;4984849;28;20259;-69
2021/12/25 02:15:44;;;;;;;13.77;8.13;;;7.70;99.90;;;;;;4983138;28;20207;-70
2021/12/25 02:18:17;;;;;;;12.20;8.33;;;7.70;99.90;;;;;;4989723;28;20200;-70
2021/12/25 02:23:49;;;;;;;12.27;7.27;;;7.80;99.90;;;;;;4986467;28;20708;-70
2021/12/25 02:26:18;;;;;;;13.00;7.53;;;7.80;99.90;;;;;;4988417;28;20234;-70
2021/12/25 02:28:45;;;;;;;11.03;7.13;;;7.70;99.90;;;;;;4988683;28;20206;-70
2021/12/25 02:31:14;;;;;;;12.07;7.87;;;7.60;99.90;;;;;;4981109;28;20631;-70
2021/12/25 02:33:41;;;;;;;14.90;8.40;;;7.60;99.90;;;;;;4985631;28;20366;-70
2021/12/25 02:36:10;;;;;;;12.30;8.30;;;7.70;99.90;;;;;;4987896;28;20209;-70
2021/12/25 02:38:38;;;;;;;11.77;7.30;;;7.60;99.90;;;;;;4989079;28;20206;-69
2021/12/25 02:41:05;;;;;;;14.93;8.30;;;7.60;99.90;;;;;;4984795;28;20653;-70
2021/12/25 02:43:33;;;;;;;13.23;8.30;;;7.60;99.90;;;;;;4985863;28;20254;-71
2021/12/25 02:46:02;;;;;;;13.07;7.60;;;7.60;99.90;;;;;;4990269;28;20395;-70
2021/12/25 02:48:31;;;;;;;12.07;8.20;;;7.60;99.90;;;;;;4988418;28;20258;-70
2021/12/25 02:50:58;;;;;;;10.27;7.60;;;7.60;99.90;;;;;;4987825;28;20228;-70
2021/12/25 02:53:25;;;;;;;12.97;7.63;;;7.60;99.90;;;;;;4983007;28;20227;-70
2021/12/25 02:55:51;;;;;;;11.73;7.97;;;7.70;99.90;;;;;;4990729;28;20219;-71
2021/12/25 02:58:21;;;;;;;11.47;7.97;;;7.80;99.90;;;;;;4989129;28;20206;-71
2021/12/25 03:00:52;;;;;;;12.33;7.60;;;7.70;99.90;;;;;;4980512;28;20207;-71
2021/12/25 03:03:20;;;;;;;13.37;7.87;;;7.80;99.90;;;;;;4983511;28;20258;-70
2021/12/25 03:05:47;;;;;;;11.40;7.43;;;7.80;99.90;;;;;;4991175;28;20206;-70
2021/12/25 03:08:14;;;;;;;11.50;7.77;;;7.80;99.90;;;;;;4989741;28;20193;-70
2021/12/25 03:10:41;;;;;;;12.73;7.80;;;7.80;99.90;;;;;;4982727;28;20204;-70
2021/12/25 03:15:45;;;;;;;13.00;7.23;;;7.70;99.90;;;;;;4985197;28;20258;-72
2021/12/25 03:18:21;;;;;;;12.23;7.23;;;7.70;99.90;;;;;;4990146;28;20251;-70
2021/12/25 03:20:49;;;;;;;10.60;7.20;;;7.70;99.90;;;;;;4986186;28;20277;-70
2021/12/25 03:23:21;;;;;;;10.67;7.27;;;7.70;99.90;;;;;;4984224;28;20234;-70
2021/12/25 03:25:50;;;;;;;11.40;7.13;;;7.70;99.90;;;;;;4989074;28;20203;-70
2021/12/25 03:28:21;;;;;;;10.33;6.80;;;7.70;99.90;;;;;;4982707;28;20194;-69
2021/12/25 03:30:49;;;;;;;10.83;7.23;;;7.70;99.90;;;;;;4990078;28;20193;-70
2021/12/25 03:33:19;;;;;;;13.70;7.80;;;7.70;99.90;;;;;;4989193;28;20251;-71
2021/12/25 03:35:47;;;;;;;11.70;7.63;;;7.70;99.90;;;;;;4988083;28;20297;-70
2021/12/25 03:38:16;;;;;;;10.43;7.17;;;7.80;99.90;;;;;;4984232;28;20274;-71
2021/12/25 03:40:43;;;;;;;10.27;6.80;;;7.70;99.90;;;;;;4985547;28;20208;-70
2021/12/25 03:43:09;;;;;;;13.93;7.20;;;7.60;99.90;;;;;;4987849;28;20219;-71
2021/12/25 03:45:36;;;;;;;10.50;7.43;;;7.60;99.90;;;;;;4988555;28;20200;-70
2021/12/25 03:48:12;;;;;;;11.27;7.17;;;7.50;99.90;;;;;;4984673;28;20195;-70
2021/12/25 03:58:56;;;;;;;11.70;7.00;;;7.50;99.90;;;;;;4987871;28;20574;-70
2021/12/25 04:06:48;;;;;;;10.70;7.20;;;7.50;99.90;;;;;;4988444;28;20230;-70
2021/12/25 04:09:27;;;;;;;11.73;6.87;;;7.50;99.90;;;;;;4991643;28;20235;-69
2021/12/25 04:11:55;;;;;;;11.67;7.10;;;7.50;99.90;;;;;;4987416;28;20196;-69
2021/12/25 04:14:22;;;;;;;10.67;6.60;;;7.60;99.90;;;;;;4990314;28;20218;-70
2021/12/25 04:16:49;;;;;;;11.57;6.87;;;7.60;99.90;;;;;;4977417;28;20199;-70
2021/12/25 04:19:17;;;;;;;10.40;7.10;;;7.60;99.90;;;;;;4980958;28;20197;-69
2021/12/25 04:22:04;;;;;;;10.10;6.47;;;7.60;99.90;;;;;;4982803;28;20197;-70
2021/12/25 04:24:34;;;;;;;10.67;7.13;;;7.60;99.90;;;;;;4990087;28;20219;-69
2021/12/25 04:27:02;;;;;;;10.13;6.80;;;7.70;99.90;;;;;;4987809;28;20592;-70
2021/12/25 05:02:22;;;;;;;11.07;7.30;;;7.60;99.90;;;;;;4988262;28;20200;-70
2021/12/25 05:04:54;;;;;;;9.67;6.63;;;7.50;99.90;;;;;;4988085;28;20221;-70
2021/12/25 05:07:21;;;;;;;9.87;5.97;;;7.50;99.90;;;;;;4989921;28;20199;-70
2021/12/25 05:09:48;;;;;;;8.60;5.60;;;7.40;99.90;;;;;;4984876;28;20194;-70
2021/12/25 05:12:14;;;;;;;10.73;6.33;;;7.50;99.90;;;;;;4988888;28;20675;-70
2021/12/25 05:14:41;;;;;;;10.03;6.50;;;7.60;99.90;;;;;;4987027;28;20281;-70
2021/12/25 05:17:10;;;;;;;10.40;7.10;;;7.50;99.90;;;;;;4990687;28;20202;-70
2021/12/25 05:19:37;;;;;;;10.33;6.67;;;7.40;99.90;;;;;;4986290;28;20209;-70
2021/12/25 05:22:04;;;;;;;10.53;5.97;;;7.40;99.90;;;;;;4986292;28;20687;-70
2021/12/25 05:24:31;;;;;;;8.40;5.30;;;7.40;99.90;;;;;;5006871;28;20258;-71
2021/12/25 05:26:58;;;;;;;9.83;5.77;;;7.50;99.90;;;;;;4991985;28;20222;-70
2021/12/25 05:29:26;;;;;;;9.83;6.03;;;7.60;99.90;;;;;;4985176;28;20245;-70
2021/12/25 05:31:53;;;;;;;9.30;5.90;;;7.50;99.90;;;;;;4987644;28;20204;-70
2021/12/25 05:34:20;;;;;;;9.37;5.50;;;7.40;99.90;;;;;;4990188;28;20235;-70
2021/12/25 05:36:47;;;;;;;8.60;5.40;;;7.50;99.90;;;;;;4991738;28;20206;-70
2021/12/25 05:39:14;;;;;;;7.83;5.33;;;7.50;99.90;;;;;;4986685;28;20680;-69
2021/12/25 05:41:41;;;;;;;8.60;5.47;;;7.40;99.90;;;;;;4989703;28;20206;-70
2021/12/25 05:44:08;;;;;;;7.90;5.47;;;7.50;99.90;;;;;;4990416;28;20227;-70
2021/12/25 05:46:38;;;;;;;8.77;5.50;;;7.40;99.90;;;;;;4986767;28;20668;-70
2021/12/25 05:49:05;;;;;;;8.87;5.73;;;7.40;99.90;;;;;;4993214;28;20202;-71
2021/12/25 05:51:32;;;;;;;9.03;5.63;;;7.50;99.90;;;;;;4991885;28;20222;-71
2021/12/25 05:53:59;;;;;;;8.03;5.37;;;7.50;99.90;;;;;;4994950;28;20220;-70
2021/12/25 05:56:26;;;;;;;11.60;6.03;;;7.40;99.90;;;;;;4993050;28;20219;-71
2021/12/25 05:58:53;;;;;;;9.20;5.60;;;7.50;99.90;;;;;;4992207;28;20210;-70
2021/12/25 06:01:20;;;;;;;10.30;5.97;;;7.60;99.90;;;;;;4991453;28;20197;-71
2021/12/25 06:03:47;;;;;;;8.50;5.90;;;7.70;99.90;;;;;;4992791;28;20243;-72
2021/12/25 06:06:14;;;;;;;7.60;5.37;;;7.60;99.90;;;;;;4994288;28;20207;-70
2021/12/25 06:08:41;;;;;;;9.87;5.80;;;7.50;99.90;;;;;;4990962;28;20327;-70
2021/12/25 06:11:07;;;;;;;9.13;5.40;;;7.50;99.90;;;;;;4991764;28;20206;-70
2021/12/25 06:13:44;;;;;;;11.30;7.07;;;7.40;99.90;;;;;;4992940;28;20228;-71
2021/12/25 06:16:11;;;;;;;9.57;5.90;;;7.50;99.90;;;;;;4989706;28;20194;-70
2021/12/25 06:18:38;;;;;;;10.63;6.33;;;7.50;99.90;;;;;;4991462;28;20219;-71
2021/12/25 06:21:04;;;;;;;9.43;6.03;;;7.50;99.90;;;;;;4983906;28;20204;-70
2021/12/25 06:23:31;;;;;;;12.27;7.33;;;7.50;99.90;;;;;;4982663;28;20234;-71
2021/12/25 06:25:58;;;;;;;14.53;7.50;;;7.50;99.90;;;;;;4985931;28;20678;-70
2021/12/25 06:28:25;;;;;;;15.90;9.13;;;7.60;99.90;;;;;;4982117;28;20201;-71
2021/12/25 06:30:51;;;;;;;15.33;8.50;;;7.70;99.90;;;;;;4998484;28;20256;-72
2021/12/25 06:33:18;;;;;;;16.10;9.03;;;7.60;99.90;;;;;;4989318;28;20227;-70
2021/12/25 06:35:45;;;;;;;13.97;7.97;;;7.50;99.90;;;;;;4990213;28;20202;-70
2021/12/25 06:38:11;;;;;;;11.90;7.73;;;7.50;99.90;;;;;;4990810;28;20233;-69
2021/12/25 06:40:38;;;;;;;15.33;8.00;;;7.50;99.90;;;;;;4989418;28;20621;-70
2021/12/25 06:43:05;;;;;;;14.47;8.90;;;7.50;99.90;;;;;;4982975;28;20729;-71
2021/12/25 06:45:32;;;;;;;16.40;9.33;;;7.60;99.90;;;;;;4988704;28;20199;-70
2021/12/25 06:47:59;;;;;;;16.13;9.07;;;7.60;99.90;;;;;;4989818;28;20733;-71
2021/12/25 06:50:26;;;;;;;16.10;9.40;;;7.60;99.90;;;;;;4981464;28;20254;-71
2021/12/25 06:52:52;;;;;;;17.57;8.83;;;7.60;99.90;;;;;;4981297;28;20578;-70
2021/12/25 06:55:20;;;;;;;17.30;8.50;;;7.60;99.90;;;;;;4982771;28;20616;-71
2021/12/25 06:57:55;;;;;;;27.50;11.83;;;7.60;99.90;;;;;;4988567;28;20769;-71
2021/12/25 07:00:23;;;;;;;24.40;10.77;;;7.70;99.90;;;;;;4986208;28;20208;-71
2021/12/25 07:02:50;;;;;;;15.63;8.57;;;7.70;99.90;;;;;;4986919;28;20200;-72
2021/12/25 07:05:17;;;;;;;19.57;8.93;;;7.60;99.90;;;;;;4984091;28;20211;-69
2021/12/25 07:07:49;;;;;;;13.97;7.87;;;7.60;99.90;;;;;;4989548;28;20196;-70
2021/12/25 07:10:17;;;;;;;15.03;7.90;;;7.70;99.90;;;;;;4988073;28;20248;-69
2021/12/25 07:12:46;;;;;;;14.07;7.30;;;7.70;99.90;;;;;;4989445;28;20205;-69
2021/12/25 07:15:14;;;;;;;12.27;7.67;;;7.70;99.90;;;;;;4992074;28;20213;-70
2021/12/25 07:17:42;;;;;;;14.87;7.93;;;7.60;99.90;;;;;;4987796;28;20210;-71
2021/12/25 07:20:10;;;;;;;17.57;8.30;;;7.60;99.90;;;;;;4990157;28;20192;-72
2021/12/25 07:22:36;;;;;;;15.33;7.67;;;7.50;99.90;;;;;;4989368;28;20553;-72
2021/12/25 07:25:05;;;;;;;16.07;7.00;;;7.40;99.90;;;;;;4990427;28;20228;-73
2021/12/25 07:27:31;;;;;;;14.27;7.03;;;7.30;99.90;;;;;;4987613;28;20283;-70
2021/12/25 07:29:58;;;;;;;13.17;6.17;;;7.40;99.90;;;;;;4976647;28;20241;-71
2021/12/25 07:32:25;;;;;;;13.47;5.90;;;7.30;99.90;;;;;;4986594;28;20208;-71
2021/12/25 07:34:52;;;;;;;10.60;5.50;;;7.20;99.90;;;;;;4987899;28;20631;-71
2021/12/25 07:37:20;;;;;;;9.63;5.27;;;7.20;99.90;;;;;;4983921;28;20232;-70
2021/12/25 07:39:47;;;;;;;11.23;5.43;;;7.30;99.90;;;;;;4989170;28;20908;-70
2021/12/25 07:42:13;;;;;;;12.77;5.30;;;7.30;99.90;;;;;;4987845;28;20202;-69
2021/12/25 07:44:40;;;;;;;9.20;4.30;;;7.20;99.90;;;;;;4988033;28;20274;-70
2021/12/25 07:47:11;;;;;;;6.53;3.43;;;7.20;99.90;;;;;;4989732;28;20204;-69
2021/12/25 07:49:37;;;;;;;9.00;3.43;;;7.20;99.90;;;;;;4988283;28;20249;-69
2021/12/25 07:52:05;;;;;;;4.90;2.77;;;7.10;99.90;;;;;;4986532;28;20205;-70
2021/12/25 07:54:32;;;;;;;6.00;3.10;;;7.00;99.90;;;;;;4988962;28;20231;-69
2021/12/25 07:56:59;;;;;;;4.73;2.73;;;7.00;99.90;;;;;;4974551;28;20221;-69
2021/12/25 07:59:25;;;;;;;4.27;2.70;;;6.90;99.90;;;;;;4988775;28;20247;-70
2021/12/25 08:01:53;;;;;;;3.90;2.80;;;6.90;99.90;;;;;;4986914;28;20205;-71
2021/12/25 08:04:21;;;;;;;6.80;3.00;;;6.80;99.90;;;;;;4982485;28;20273;-69
2021/12/25 08:06:48;;;;;;;4.63;2.90;;;6.70;99.90;;;;;;4983100;28;20329;-69
2021/12/25 08:09:20;;;;;;;4.73;2.33;;;6.60;99.90;;;;;;4986078;28;20209;-69
2021/12/25 08:11:47;;;;;;;3.93;2.63;;;6.50;99.90;;;;;;4981449;28;20249;-70
2021/12/25 08:14:14;;;;;;;5.47;2.57;;;6.50;99.90;;;;;;4985796;28;20216;-68
2021/12/25 08:16:41;;;;;;;4.67;2.50;;;6.50;99.90;;;;;;4989695;28;20213;-69
2021/12/25 08:19:07;;;;;;;4.17;2.57;;;6.40;99.90;;;;;;4989141;28;20205;-72
2021/12/25 08:21:34;;;;;;;3.67;2.47;;;6.40;99.90;;;;;;4984751;28;20208;-70
2021/12/25 08:24:01;;;;;;;4.83;2.57;;;6.40;99.90;;;;;;4990082;28;20229;-71
2021/12/25 08:26:27;;;;;;;6.97;2.63;;;6.50;99.90;;;;;;4984207;28;20208;-70
2021/12/25 08:28:54;;;;;;;4.33;2.57;;;6.50;99.90;;;;;;4985714;28;20193;-70
2021/12/25 08:31:21;;;;;;;4.67;2.80;;;6.40;99.90;;;;;;4986970;28;20204;-67
2021/12/25 08:33:48;;;;;;;5.03;2.80;;;6.30;99.90;;;;;;4986580;28;20221;-70
2021/12/25 08:36:15;;;;;;;4.27;2.97;;;6.30;99.90;;;;;;4981987;28;20201;-71
2021/12/25 08:38:42;;;;;;;4.70;2.40;;;6.30;99.90;;;;;;4986996;28;20723;-67
2021/12/25 08:41:13;;;;;;;4.37;2.73;;;6.40;99.90;;;;;;4987539;28;20700;-70
2021/12/25 08:43:47;;;;;;;4.47;2.33;;;6.40;99.90;;;;;;4985511;28;20271;-71
2021/12/25 08:46:24;;;;;;;4.40;2.67;;;6.30;99.90;;;;;;4985710;28;20198;-70
2021/12/25 08:48:52;;;;;;;3.70;2.50;;;6.30;99.90;;;;;;4985736;28;20212;-71
2021/12/25 08:51:19;;;;;;;4.53;3.00;;;6.30;99.90;;;;;;4982945;28;20252;-72
2021/12/25 08:53:45;;;;;;;4.63;2.53;;;6.30;99.90;;;;;;4990968;28;20222;-70
2021/12/25 08:56:12;;;;;;;2.80;2.17;;;6.20;99.90;;;;;;4983976;28;20657;-69
2021/12/25 08:58:39;;;;;;;4.13;2.53;;;6.40;99.90;;;;;;4993229;28;20203;-68
2021/12/25 09:01:08;;;;;;;4.13;2.20;;;6.50;99.90;;;;;;4988954;28;20201;-70
2021/12/25 09:03:35;;;;;;;2.47;1.63;;;6.30;99.90;;;;;;4985007;28;20222;-70
2021/12/25 09:06:03;;;;;;;2.03;1.57;;;6.30;99.90;;;;;;4990392;28;20196;-69
2021/12/25 09:08:30;;;;;;;2.77;1.60;;;6.40;99.90;;;;;;4992098;28;20689;-71
2021/12/25 09:10:57;;;;;;;0.80;0.80;;;6.30;99.90;;;;;;4992381;28;20193;-69
2021/12/25 09:13:24;;;;;;;1.00;0.90;;;6.20;99.90;;;;;;4992682;28;20216;-70
2021/12/25 09:15:51;;;;;;;1.03;0.90;;;6.10;99.90;;;;;;4992235;28;20200;-70
2021/12/25 09:18:18;;;;;;;0.97;0.80;;;6.20;99.90;;;;;;4988695;28;20252;-70
2021/12/25 09:20:45;;;;;;;1.27;0.83;;;6.00;99.90;;;;;;4991937;28;20201;-71
2021/12/25 09:23:11;;;;;;;0.87;0.83;;;6.10;99.90;;;;;;4986114;28;20200;-70
2021/12/25 09:25:38;;;;;;;1.10;0.90;;;6.10;99.90;;;;;;4990292;28;20605;-71
2021/12/25 09:28:05;;;;;;;4.30;1.30;;;6.00;99.90;;;;;;4989870;28;20614;-70
2021/12/25 09:30:32;;;;;;;0.80;0.80;;;6.00;99.90;;;;;;4990012;28;20239;-70
2021/12/25 09:32:58;;;;;;;1.33;1.00;;;5.90;99.90;;;;;;4990424;28;20197;-70
2021/12/25 09:35:25;;;;;;;1.53;1.00;;;6.00;99.90;;;;;;4992048;28;20272;-70
2021/12/25 09:37:52;;;;;;;2.13;1.00;;;6.10;99.90;;;;;;4988302;28;20201;-71
2021/12/25 09:40:18;;;;;;;1.97;1.40;;;6.20;99.90;;;;;;4993072;28;20227;-70
2021/12/25 09:42:45;;;;;;;1.90;1.40;;;6.40;99.90;;;;;;4991050;28;20200;-69
2021/12/25 09:45:14;;;;;;;2.17;1.57;;;6.50;99.90;;;;;;4990929;28;20306;-70
2021/12/25 09:47:41;;;;;;;2.20;1.57;;;6.50;99.90;;;;;;4986066;28;20277;-71
2021/12/25 09:50:08;;;;;;;2.00;1.40;;;6.70;99.90;;;;;;4984311;28;20190;-70
2021/12/25 09:52:36;;;;;;;1.40;1.13;;;6.70;99.90;;;;;;4987880;28;20192;-70
2021/12/25 09:55:03;;;;;;;3.83;1.03;;;6.70;99.90;;;;;;4982839;28;20256;-70
2021/12/25 09:57:34;;;;;;;0.87;0.80;;;6.70;99.90;;;;;;4992504;28;20203;-70
2021/12/25 10:00:11;;;;;;;1.23;0.93;;;6.60;99.90;;;;;;4995561;28;20197;-70
2021/12/25 10:02:48;;;;;;;1.23;0.97;;;6.60;99.90;;;;;;4987467;28;20200;-69
2021/12/25 10:05:38;;;;;;;1.20;0.93;;;6.50;99.90;;;;;;4988813;28;20221;-70
2021/12/25 10:08:14;;;;;;;1.60;1.13;;;6.50;99.90;;;;;;4986250;28;20196;-70
2021/12/25 10:10:41;;;;;;;2.70;0.90;;;6.50;99.90;;;;;;4989744;28;20204;-70
2021/12/25 10:13:39;;;;;;;2.60;1.03;;;6.50;99.90;;;;;;4989613;28;20196;-70
2021/12/25 10:16:25;;;;;;;1.43;1.10;;;6.50;99.90;;;;;;4975619;28;20653;-73
2021/12/25 10:19:13;;;;;;;1.43;1.17;;;6.40;99.90;;;;;;4985232;28;20203;-70
2021/12/25 10:21:40;;;;;;;1.30;1.03;;;6.30;99.90;;;;;;4986724;28;20692;-73
2021/12/25 10:24:11;;;;;;;1.13;1.03;;;6.40;99.90;;;;;;4986342;28;20573;-70
2021/12/25 10:26:41;;;;;;;0.87;0.80;;;6.40;99.90;;;;;;4981880;28;20222;-71
2021/12/25 10:29:21;;;;;;;0.83;0.80;;;6.40;99.90;;;;;;4982412;28;20200;-70
2021/12/25 10:31:49;;;;;;;1.90;1.50;;;6.40;99.90;;;;;;4987124;28;20699;-71
2021/12/25 10:34:22;;;;;;;2.70;1.33;;;6.50;99.90;;;;;;4978688;28;20224;-73
2021/12/25 10:36:49;;;;;;;2.63;1.20;;;6.70;99.90;;;;;;4973820;28;20334;-73
2021/12/25 10:39:24;;;;;;;0.97;0.90;;;6.70;99.90;;;;;;4986918;28;20205;-70
2021/12/25 10:41:57;;;;;;;1.90;1.13;;;6.80;99.90;;;;;;4986340;28;20207;-69
2021/12/25 10:44:26;;;;;;;1.67;0.90;;;6.80;99.90;;;;;;4981156;28;20236;-71
2021/12/25 10:46:59;;;;;;;1.60;1.07;;;6.90;99.90;;;;;;4985794;28;20461;-71
2021/12/25 10:49:34;;;;;;;0.97;0.80;;;6.90;99.90;;;;;;4990351;28;20212;-68
2021/12/25 10:52:20;;;;;;;3.17;1.00;;;6.80;99.90;;;;;;4984696;28;20197;-68
2021/12/25 10:54:55;;;;;;;2.30;0.90;;;6.70;99.90;;;;;;4988218;28;20225;-72
2021/12/25 10:57:46;;;;;;;0.97;0.87;;;6.60;99.90;;;;;;4984737;28;20201;-69
2021/12/25 11:00:30;;;;;;;1.60;0.90;;;6.60;99.90;;;;;;4985382;28;20204;-71
2021/12/25 11:03:04;;;;;;;2.63;1.17;;;6.50;99.90;;;;;;4984815;28;20288;-70
2021/12/25 11:05:42;;;;;;;1.20;1.00;;;6.50;99.90;;;;;;4988027;28;20294;-71
2021/12/25 11:08:19;;;;;;;1.13;0.80;;;6.50;99.90;;;;;;4988549;28;20197;-69
2021/12/25 11:10:50;;;;;;;1.07;0.80;;;6.50;99.90;;;;;;4987329;28;20253;-70
2021/12/25 11:13:36;;;;;;;1.00;0.90;;;6.50;99.90;;;;;;4989801;28;20193;-69
2021/12/25 11:16:14;;;;;;;1.43;0.97;;;6.40;99.90;;;;;;4988046;28;20202;-68
2021/12/25 11:19:12;;;;;;;1.43;1.00;;;6.40;99.90;;;;;;4988993;28;20208;-71
2021/12/25 11:21:49;;;;;;;1.63;1.10;;;6.30;99.90;;;;;;4988581;28;20200;-70
2021/12/25 11:24:30;;;;;;;1.50;1.30;;;6.20;99.90;;;;;;4990738;28;20693;-71
2021/12/25 11:27:04;;;;;;;2.03;1.00;;;6.20;99.90;;;;;;4987836;28;20201;-69
2021/12/25 11:29:34;;;;;;;1.10;1.00;;;6.00;99.90;;;;;;4989810;28;20193;-69
2021/12/25 11:32:03;;;;;;;1.40;1.10;;;6.00;99.90;;;;;;4991307;28;20283;-69
2021/12/25 11:34:29;;;;;;;2.33;0.97;;;6.00;99.90;;;;;;4987911;28;20220;-70
2021/12/25 11:37:00;;;;;;;1.50;1.07;;;6.00;99.90;;;;;;4991094;28;20209;-71
2021/12/25 11:39:28;;;;;;;1.07;1.00;;;6.00;99.90;;;;;;4986018;28;20205;-68
2021/12/25 11:42:02;;;;;;;1.90;1.00;;;5.90;99.90;;;;;;4984577;28;20204;-68
2021/12/25 11:44:38;;;;;;;1.10;1.00;;;6.00;99.90;;;;;;4989462;28;20260;-70
2021/12/25 11:47:06;;;;;;;1.07;0.77;;;5.80;99.90;;;;;;4985614;28;20201;-69
2021/12/25 11:49:50;;;;;;;0.97;0.90;;;5.90;99.90;;;;;;4990435;28;20199;-68
2021/12/25 11:52:23;;;;;;;1.10;0.97;;;5.80;99.90;;;;;;4988959;28;20202;-70
2021/12/25 11:57:48;;;;;;;1.23;0.90;;;5.60;99.90;;;;;;4988449;28;20731;-68
2021/12/25 12:00:34;;;;;;;0.83;0.83;;;5.70;99.90;;;;;;4985683;28;20204;-70
2021/12/25 12:03:02;;;;;;;1.00;0.90;;;5.50;99.90;;;;;;4986758;28;20197;-71
2021/12/25 12:05:32;;;;;;;1.33;1.20;;;5.50;99.90;;;;;;4989398;28;20255;-68
2021/12/25 12:08:02;;;;;;;1.30;0.80;;;5.50;99.90;;;;;;4982781;28;20239;-68
2021/12/25 12:10:48;;;;;;;1.40;0.80;;;5.50;99.90;;;;;;4985248;28;20206;-69
2021/12/25 12:13:27;;;;;;;1.07;0.90;;;5.50;99.90;;;;;;4983815;28;20199;-68
2021/12/25 12:15:57;;;;;;;1.40;0.90;;;5.50;99.90;;;;;;4975853;28;20267;-69
2021/12/25 12:18:31;;;;;;;1.00;0.90;;;5.50;99.90;;;;;;4981520;28;20269;-69
2021/12/25 12:21:10;;;;;;;1.30;1.00;;;5.40;99.90;;;;;;4980949;28;20218;-69
2021/12/25 12:24:08;;;;;;;1.30;1.20;;;5.30;99.90;;;;;;4973898;28;20291;-68
2021/12/25 12:26:53;;;;;;;1.33;1.00;;;5.10;99.90;;;;;;4984037;28;20217;-72
2021/12/25 12:29:38;;;;;;;1.17;1.07;;;5.00;99.90;;;;;;4981233;28;20202;-69
2021/12/25 12:32:06;;;;;;;1.17;0.80;;;5.00;99.90;;;;;;4987913;28;20211;-69
2021/12/25 12:34:34;;;;;;;1.83;1.17;;;4.90;99.90;;;;;;4986081;28;20222;-68
2021/12/25 12:37:23;;;;;;;1.47;1.03;;;4.80;99.90;;;;;;4982523;28;20201;-68
2021/12/25 12:39:53;;;;;;;1.10;1.00;;;4.80;99.90;;;;;;4987396;28;20508;-69
2021/12/25 12:42:44;;;;;;;1.20;1.10;;;4.70;99.90;;;;;;4987655;28;20206;-68
2021/12/25 12:45:15;;;;;;;1.20;1.10;;;4.70;99.90;;;;;;4972130;28;20572;-69
2021/12/25 12:48:08;;;;;;;1.10;1.00;;;4.60;99.90;;;;;;4988800;28;20290;-68
2021/12/25 12:50:36;;;;;;;1.10;1.00;;;4.50;99.90;;;;;;4989105;28;20287;-73
2021/12/25 12:53:07;;;;;;;1.77;1.10;;;4.50;99.90;;;;;;4988624;28;20193;-73
2021/12/25 12:55:39;;;;;;;1.33;1.10;;;4.50;99.90;;;;;;4985561;28;20264;-71
2021/12/25 12:58:13;;;;;;;1.30;1.00;;;4.50;99.90;;;;;;4987313;28;20201;-68
2021/12/25 13:00:44;;;;;;;1.80;1.10;;;4.50;99.90;;;;;;4989019;28;20196;-73
2021/12/25 13:03:11;;;;;;;2.17;1.30;;;4.50;99.90;;;;;;4978906;28;20263;-70
2021/12/25 13:05:41;;;;;;;1.67;1.30;;;4.50;99.90;;;;;;4975988;28;20225;-69
2021/12/25 13:08:20;;;;;;;1.47;1.10;;;4.50;99.90;;;;;;4982340;28;20206;-70
2021/12/25 13:13:22;;;;;;;2.30;1.50;;;4.50;99.90;;;;;;4988154;28;20611;-68
2021/12/25 13:15:56;;;;;;;3.37;1.37;;;4.50;99.90;;;;;;4985461;28;20205;-70
2021/12/25 13:18:35;;;;;;;1.57;1.40;;;4.30;99.90;;;;;;4987058;28;20213;-69
2021/12/25 13:21:08;;;;;;;1.53;1.33;;;4.30;99.90;;;;;;4988065;28;20205;-69
2021/12/25 13:23:49;;;;;;;1.50;1.30;;;4.20;99.90;;;;;;4986036;28;20279;-70
2021/12/25 13:26:19;;;;;;;1.80;1.27;;;4.30;99.90;;;;;;4983366;28;20236;-69
2021/12/25 13:28:51;;;;;;;1.40;1.27;;;4.30;99.90;;;;;;4988204;28;20283;-70
2021/12/25 13:31:20;;;;;;;1.93;1.47;;;4.10;99.90;;;;;;4987065;28;20255;-70
2021/12/25 13:33:51;;;;;;;2.00;1.50;;;4.00;99.90;;;;;;4985705;28;20214;-72
2021/12/25 13:36:25;;;;;;;1.43;1.30;;;4.00;99.90;;;;;;4987354;28;20272;-72
2021/12/25 13:39:23;;;;;;;1.73;1.60;;;4.00;99.90;;;;;;4989523;28;20193;-73
2021/12/25 13:42:06;;;;;;;1.97;1.40;;;4.10;99.90;;;;;;4977738;28;20196;-70
2021/12/25 13:44:34;;;;;;;1.30;1.20;;;4.10;99.90;;;;;;4986357;28;20231;-71
2021/12/25 13:47:15;;;;;;;1.47;1.30;;;4.00;99.90;;;;;;4982182;28;20549;-70
2021/12/25 13:49:46;;;;;;;1.63;1.50;;;3.90;99.90;;;;;;4986101;28;20199;-73
2021/12/25 13:52:25;;;;;;;2.47;1.50;;;3.80;99.90;;;;;;4990094;28;20895;-70
2021/12/25 13:54:54;;;;;;;2.37;1.73;;;3.80;99.90;;;;;;4985050;28;20247;-71
2021/12/25 13:57:26;;;;;;;2.60;1.50;;;3.70;99.90;;;;;;4989868;28;20597;-70
2021/12/25 14:00:01;;;;;;;2.17;1.70;;;3.60;99.90;;;;;;4988501;28;20292;-73
2021/12/25 14:02:29;;;;;;;2.40;1.83;;;3.60;99.90;;;;;;4985191;28;20220;-71
2021/12/25 14:04:56;;;;;;;2.43;1.90;;;3.60;99.90;;;;;;4984826;28;20227;-71
2021/12/25 14:07:26;;;;;;;4.10;1.80;;;3.50;99.90;;;;;;4990204;28;20664;-71
2021/12/25 14:10:21;;;;;;;4.10;1.70;;;3.50;99.90;;;;;;4989042;28;20649;-70
2021/12/25 14:12:51;;;;;;;3.13;1.80;;;3.60;99.90;;;;;;4982493;28;20252;-71
2021/12/25 14:15:20;;;;;;;2.43;1.80;;;3.50;99.90;;;;;;4986841;28;21601;-71
2021/12/25 14:17:48;;;;;;;2.10;1.70;;;3.50;99.90;;;;;;4989953;28;20577;-72
2021/12/25 14:20:28;;;;;;;2.50;1.90;;;3.60;99.90;;;;;;4989913;28;20205;-71
2021/12/25 14:23:19;;;;;;;2.63;1.97;;;3.50;99.90;;;;;;4982985;28;20277;-71
2021/12/25 14:25:58;;;;;;;2.30;2.00;;;3.70;99.90;;;;;;4988609;28;20229;-71
2021/12/25 14:28:35;;;;;;;2.67;2.00;;;3.70;99.90;;;;;;4989437;28;20197;-71
2021/12/25 14:31:14;;;;;;;2.10;1.73;;;3.60;99.90;;;;;;4988086;28;20201;-71
2021/12/25 14:34:02;;;;;;;3.23;2.30;;;3.60;99.90;;;;;;4991954;28;20251;-70
2021/12/25 14:36:36;;;;;;;3.10;2.23;;;3.60;99.90;;;;;;4990177;28;20207;-71